NEW HOGAN LAKE (NHG)

Elevation: 554' · CALAVERAS R basin · Operator: US Army Corps of Engineers

Provisional data, subject to change.
Query executed Sunday at 20:12:17   clock

Select a sensor type for a plot of data.
Note: Reservoir Flows are daily averages.

Earlier

Date RES ELE    STORAGE    RES CHG    TOC STO    ABV TOC    OUTFLOW    INFLOW    FNF    PPT INC    TEMP MN    TEMP MX   
 FEET   AF   AF   AF   AF   CFS   CFS   CFS   INCHES   DEG F   DEG F  
04/25/2015 627.13 63753 35 290569 -226816 53 78 78 0.85 10 20
04/26/2015 627.10 63701 -52 292610 -228909 48 33 33 0.01 8 23
04/27/2015 627.09 63684 -17 294651 -230967 41 45 45 0.04 12 29
04/28/2015 627.05 63615 -69 296692 -233077 37 16 16 0.01 13 30
04/29/2015 627.01 63547 -- 298733 -- 37 15 15 0.00 12 28
04/30/2015 626.97 63478 -69 300773 -237295 36 16 16 0.00 13 31
05/01/2015 626.70 63017 -461 302814 -239797 182 -34 -34 0.01 14 32
05/02/2015 626.38 62472 -- 304855 -242383 284 25 25 0.00 13 31
05/03/2015 626.14 62066 -- 306896 -244830 195 5 5 0.00 11 29
05/04/2015 625.98 61795 -271 308937 -247142 144 20 20 0.00 9 26
05/05/2015 625.84 61560 -- 310978 -249418 110 4 4 0.00 9 26
05/06/2015 625.74 61391 -169 313018 -251627 81 7 7 0.00 9 24
05/07/2015 625.63 61207 -184 315059 -253852 74 -15 -15 0.00 10 15
05/08/2015 625.49 60972 -235 317100 -256128 106 -4 -4 0.00 7 22
05/09/2015 625.33 60705 -267 317100 -256395 121 -2 -2 0.00 8 24
05/10/2015 625.27 60605 -100 317100 -256495 70 33 33 0.00 10 29
05/11/2015 625.24 60555 -50 317100 -256545 10 -2 -2 0.00 10 25
05/12/2015 625.19 60472 -83 317100 -256628 18 -12 -12 0.00 8 21
05/13/2015 625.15 60405 -67 317100 -256695 38 16 16 0.00 9 21
05/14/2015 625.12 60355 -50 317100 -256745 43 25 25 0.20 10 20
05/15/2015 625.06 60255 -100 317100 -256845 37 -4 -4 0.06 10 22
05/16/2015 625.01 60172 -83 317100 -256928 37 7 7 0.02 9 25
05/17/2015 624.96 60089 -83 317100 -257011 37 4 4 0.00 10 23
05/18/2015 624.91 60006 -83 317100 -257094 37 5 5 0.00 11 23
05/19/2015 624.86 59924 -82 317100 -257176 37 8 8 0.00 9 25
05/20/2015 624.80 59824 -100 317100 -257276 37 -1 -1 0.01 10 26
05/21/2015 624.75 59742 -82 317100 -257358 38 4 4 0.00 11 21
05/22/2015 624.70 59659 -83 317100 -257441 39 6 -- 0.00 12 23
05/23/2015 624.64 59560 -99 317100 -257540 39 0 -- 0.00 12 25
05/24/2015 -- -- -- -- -- -- -- -- -- -- --

Later | Latest

Warning! This data is preliminary and subject to revision.

Show NHG Map | Plot NHG Data | 1 Month NHG Data | Real-Time NHG Data | NHG Info